sensor_id;sensor_type;location;lat;lon;timestamp;P1;durP1;ratioP1;P2;durP2;ratioP2
3677;SDS011;1855;50.934;6.958;2023-02-28T00:00:36;2.97;;;2.70;;
3677;SDS011;1855;50.934;6.958;2023-02-28T00:03:04;3.50;;;2.40;;
3677;SDS011;1855;50.934;6.958;2023-02-28T00:05:31;3.13;;;2.30;;
3677;SDS011;1855;50.934;6.958;2023-02-28T00:07:58;2.92;;;2.50;;
3677;SDS011;1855;50.934;6.958;2023-02-28T00:10:27;3.50;;;2.60;;
3677;SDS011;1855;50.934;6.958;2023-02-28T00:12:55;3.13;;;2.40;;
3677;SDS011;1855;50.934;6.958;2023-02-28T00:15:26;2.60;;;2.40;;
3677;SDS011;1855;50.934;6.958;2023-02-28T00:17:53;2.70;;;2.50;;
3677;SDS011;1855;50.934;6.958;2023-02-28T00:20:20;3.00;;;2.70;;
3677;SDS011;1855;50.934;6.958;2023-02-28T00:22:48;3.00;;;2.70;;
3677;SDS011;1855;50.934;6.958;2023-02-28T00:25:17;3.70;;;2.90;;
3677;SDS011;1855;50.934;6.958;2023-02-28T00:27:45;2.50;;;2.30;;
3677;SDS011;1855;50.934;6.958;2023-02-28T00:30:13;3.60;;;2.60;;
3677;SDS011;1855;50.934;6.958;2023-02-28T00:32:43;3.92;;;2.60;;
3677;SDS011;1855;50.934;6.958;2023-02-28T00:35:10;3.30;;;2.50;;
3677;SDS011;1855;50.934;6.958;2023-02-28T00:37:37;3.92;;;2.67;;
3677;SDS011;1855;50.934;6.958;2023-02-28T00:40:04;4.40;;;2.90;;
3677;SDS011;1855;50.934;6.958;2023-02-28T00:42:33;2.90;;;2.50;;
3677;SDS011;1855;50.934;6.958;2023-02-28T00:44:59;2.92;;;2.47;;
3677;SDS011;1855;50.934;6.958;2023-02-28T00:47:28;2.53;;;2.30;;
3677;SDS011;1855;50.934;6.958;2023-02-28T00:49:56;2.92;;;2.50;;
3677;SDS011;1855;50.934;6.958;2023-02-28T00:52:23;4.93;;;2.60;;
3677;SDS011;1855;50.934;6.958;2023-02-28T00:54:50;2.78;;;2.58;;
3677;SDS011;1855;50.934;6.958;2023-02-28T00:57:17;3.20;;;2.50;;
3677;SDS011;1855;50.934;6.958;2023-02-28T00:59:43;3.38;;;2.45;;
3677;SDS011;1855;50.934;6.958;2023-02-28T01:02:10;2.97;;;2.40;;
3677;SDS011;1855;50.934;6.958;2023-02-28T01:04:37;3.10;;;2.50;;
3677;SDS011;1855;50.934;6.958;2023-02-28T01:07:05;3.00;;;2.50;;
3677;SDS011;1855;50.934;6.958;2023-02-28T01:09:32;2.38;;;2.17;;
3677;SDS011;1855;50.934;6.958;2023-02-28T01:11:58;3.60;;;2.70;;
3677;SDS011;1855;50.934;6.958;2023-02-28T01:14:25;2.70;;;2.40;;
3677;SDS011;1855;50.934;6.958;2023-02-28T01:16:52;3.20;;;2.90;;
3677;SDS011;1855;50.934;6.958;2023-02-28T01:19:19;3.00;;;2.70;;
3677;SDS011;1855;50.934;6.958;2023-02-28T01:21:45;2.83;;;2.60;;
3677;SDS011;1855;50.934;6.958;2023-02-28T01:24:13;4.00;;;2.65;;
3677;SDS011;1855;50.934;6.958;2023-02-28T01:26:40;2.90;;;2.40;;
3677;SDS011;1855;50.934;6.958;2023-02-28T01:29:07;2.78;;;2.47;;
3677;SDS011;1855;50.934;6.958;2023-02-28T01:31:34;3.47;;;2.37;;
3677;SDS011;1855;50.934;6.958;2023-02-28T01:34:01;3.38;;;2.70;;
3677;SDS011;1855;50.934;6.958;2023-02-28T01:36:28;2.80;;;2.60;;
3677;SDS011;1855;50.934;6.958;2023-02-28T01:38:55;3.08;;;2.50;;
3677;SDS011;1855;50.934;6.958;2023-02-28T01:41:24;2.70;;;2.50;;
3677;SDS011;1855;50.934;6.958;2023-02-28T01:43:54;2.50;;;2.30;;
3677;SDS011;1855;50.934;6.958;2023-02-28T01:46:28;3.72;;;2.90;;
3677;SDS011;1855;50.934;6.958;2023-02-28T01:48:56;4.53;;;2.55;;
3677;SDS011;1855;50.934;6.958;2023-02-28T01:51:29;3.78;;;3.22;;
3677;SDS011;1855;50.934;6.958;2023-02-28T01:53:59;2.65;;;2.45;;
3677;SDS011;1855;50.934;6.958;2023-02-28T01:56:30;2.95;;;2.50;;
3677;SDS011;1855;50.934;6.958;2023-02-28T01:59:01;4.88;;;3.38;;
3677;SDS011;1855;50.934;6.958;2023-02-28T02:01:29;2.88;;;2.20;;
3677;SDS011;1855;50.934;6.958;2023-02-28T02:03:57;2.92;;;2.63;;
3677;SDS011;1855;50.934;6.958;2023-02-28T02:06:27;3.80;;;2.87;;
3677;SDS011;1855;50.934;6.958;2023-02-28T02:08:56;2.75;;;2.55;;
3677;SDS011;1855;50.934;6.958;2023-02-28T02:11:23;3.00;;;2.70;;
3677;SDS011;1855;50.934;6.958;2023-02-28T02:14:02;3.13;;;2.83;;
3677;SDS011;1855;50.934;6.958;2023-02-28T02:16:56;2.88;;;2.67;;
3677;SDS011;1855;50.934;6.958;2023-02-28T02:19:49;2.78;;;2.58;;
3677;SDS011;1855;50.934;6.958;2023-02-28T02:22:51;4.10;;;2.60;;
3677;SDS011;1855;50.934;6.958;2023-02-28T02:25:35;3.80;;;2.60;;
3677;SDS011;1855;50.934;6.958;2023-02-28T02:28:17;2.58;;;2.30;;
3677;SDS011;1855;50.934;6.958;2023-02-28T02:31:09;2.60;;;2.35;;
3677;SDS011;1855;50.934;6.958;2023-02-28T02:36:53;2.40;;;2.20;;
3677;SDS011;1855;50.934;6.958;2023-02-28T02:39:29;3.50;;;2.42;;
3677;SDS011;1855;50.934;6.958;2023-02-28T02:42:03;3.00;;;2.60;;
3677;SDS011;1855;50.934;6.958;2023-02-28T02:44:40;3.00;;;2.70;;
3677;SDS011;1855;50.934;6.958;2023-02-28T02:47:14;3.05;;;2.70;;
3677;SDS011;1855;50.934;6.958;2023-02-28T02:49:45;3.40;;;3.08;;
3677;SDS011;1855;50.934;6.958;2023-02-28T02:52:16;3.00;;;2.80;;
3677;SDS011;1855;50.934;6.958;2023-02-28T02:54:48;2.45;;;2.25;;
3677;SDS011;1855;50.934;6.958;2023-02-28T02:57:20;2.92;;;2.30;;
3677;SDS011;1855;50.934;6.958;2023-02-28T02:59:50;3.63;;;2.67;;
3677;SDS011;1855;50.934;6.958;2023-02-28T03:02:21;2.65;;;2.45;;
3677;SDS011;1855;50.934;6.958;2023-02-28T03:04:51;3.58;;;2.30;;
3677;SDS011;1855;50.934;6.958;2023-02-28T03:07:25;3.30;;;2.50;;
3677;SDS011;1855;50.934;6.958;2023-02-28T03:09:52;2.50;;;2.30;;
3677;SDS011;1855;50.934;6.958;2023-02-28T03:12:19;2.58;;;2.30;;
3677;SDS011;1855;50.934;6.958;2023-02-28T03:14:51;2.40;;;2.20;;
3677;SDS011;1855;50.934;6.958;2023-02-28T03:17:30;2.90;;;2.70;;
3677;SDS011;1855;50.934;6.958;2023-02-28T03:20:11;2.60;;;2.30;;
3677;SDS011;1855;50.934;6.958;2023-02-28T03:22:51;2.30;;;2.10;;
3677;SDS011;1855;50.934;6.958;2023-02-28T03:25:29;2.42;;;2.20;;
3677;SDS011;1855;50.934;6.958;2023-02-28T03:28:04;2.13;;;2.00;;
3677;SDS011;1855;50.934;6.958;2023-02-28T03:30:39;2.30;;;2.10;;
3677;SDS011;1855;50.934;6.958;2023-02-28T03:33:12;2.25;;;2.05;;
3677;SDS011;1855;50.934;6.958;2023-02-28T03:35:45;2.35;;;2.13;;
3677;SDS011;1855;50.934;6.958;2023-02-28T03:38:17;3.03;;;2.30;;
3677;SDS011;1855;50.934;6.958;2023-02-28T03:40:48;2.90;;;2.60;;
3677;SDS011;1855;50.934;6.958;2023-02-28T03:43:18;2.50;;;2.22;;
3677;SDS011;1855;50.934;6.958;2023-02-28T03:45:50;2.83;;;2.30;;
3677;SDS011;1855;50.934;6.958;2023-02-28T03:48:19;2.65;;;2.40;;
3677;SDS011;1855;50.934;6.958;2023-02-28T03:50:51;2.60;;;2.40;;
3677;SDS011;1855;50.934;6.958;2023-02-28T03:53:22;2.60;;;2.40;;
3677;SDS011;1855;50.934;6.958;2023-02-28T03:55:53;2.50;;;2.30;;
3677;SDS011;1855;50.934;6.958;2023-02-28T03:58:26;2.88;;;2.67;;
3677;SDS011;1855;50.934;6.958;2023-02-28T04:00:57;2.50;;;2.30;;
3677;SDS011;1855;50.934;6.958;2023-02-28T04:03:33;3.20;;;2.90;;
3677;SDS011;1855;50.934;6.958;2023-02-28T04:06:02;2.70;;;2.50;;
3677;SDS011;1855;50.934;6.958;2023-02-28T04:08:30;2.95;;;2.50;;
3677;SDS011;1855;50.934;6.958;2023-02-28T04:10:58;2.60;;;2.40;;
3677;SDS011;1855;50.934;6.958;2023-02-28T04:13:30;2.80;;;2.50;;
3677;SDS011;1855;50.934;6.958;2023-02-28T04:15:57;2.80;;;2.60;;
3677;SDS011;1855;50.934;6.958;2023-02-28T04:18:24;3.78;;;2.40;;
3677;SDS011;1855;50.934;6.958;2023-02-28T04:20:51;4.22;;;2.72;;
3677;SDS011;1855;50.934;6.958;2023-02-28T04:23:19;2.92;;;2.63;;
3677;SDS011;1855;50.934;6.958;2023-02-28T04:25:45;2.85;;;2.58;;
3677;SDS011;1855;50.934;6.958;2023-02-28T04:28:12;3.53;;;2.90;;
3677;SDS011;1855;50.934;6.958;2023-02-28T04:30:39;3.22;;;2.83;;
3677;SDS011;1855;50.934;6.958;2023-02-28T04:33:06;4.10;;;3.70;;
3677;SDS011;1855;50.934;6.958;2023-02-28T04:35:32;5.13;;;4.72;;
3677;SDS011;1855;50.934;6.958;2023-02-28T04:37:59;3.30;;;3.00;;
3677;SDS011;1855;50.934;6.958;2023-02-28T04:40:27;3.40;;;3.08;;
3677;SDS011;1855;50.934;6.958;2023-02-28T04:42:54;3.47;;;3.08;;
3677;SDS011;1855;50.934;6.958;2023-02-28T04:45:21;3.35;;;3.05;;
3677;SDS011;1855;50.934;6.958;2023-02-28T04:47:47;3.50;;;3.20;;
3677;SDS011;1855;50.934;6.958;2023-02-28T04:50:14;3.40;;;3.10;;
3677;SDS011;1855;50.934;6.958;2023-02-28T04:52:41;3.75;;;3.25;;
3677;SDS011;1855;50.934;6.958;2023-02-28T04:55:08;3.40;;;3.10;;
3677;SDS011;1855;50.934;6.958;2023-02-28T04:57:37;2.90;;;2.60;;
3677;SDS011;1855;50.934;6.958;2023-02-28T05:00:04;3.20;;;2.90;;
3677;SDS011;1855;50.934;6.958;2023-02-28T05:02:36;2.90;;;2.70;;
3677;SDS011;1855;50.934;6.958;2023-02-28T05:05:03;3.53;;;3.22;;
3677;SDS011;1855;50.934;6.958;2023-02-28T05:07:30;3.35;;;3.05;;
3677;SDS011;1855;50.934;6.958;2023-02-28T05:09:57;3.20;;;2.90;;
3677;SDS011;1855;50.934;6.958;2023-02-28T05:12:23;3.15;;;2.85;;
3677;SDS011;1855;50.934;6.958;2023-02-28T05:14:52;3.28;;;2.95;;
3677;SDS011;1855;50.934;6.958;2023-02-28T05:17:18;3.30;;;3.00;;
3677;SDS011;1855;50.934;6.958;2023-02-28T05:19:45;3.90;;;2.80;;
3677;SDS011;1855;50.934;6.958;2023-02-28T05:22:13;2.72;;;2.53;;
3677;SDS011;1855;50.934;6.958;2023-02-28T05:24:41;2.90;;;2.70;;
3677;SDS011;1855;50.934;6.958;2023-02-28T05:27:08;3.10;;;2.80;;
3677;SDS011;1855;50.934;6.958;2023-02-28T05:29:35;3.20;;;2.70;;
3677;SDS011;1855;50.934;6.958;2023-02-28T05:32:08;3.40;;;3.10;;
3677;SDS011;1855;50.934;6.958;2023-02-28T05:34:36;3.17;;;2.88;;
3677;SDS011;1855;50.934;6.958;2023-02-28T05:37:03;3.95;;;3.00;;
3677;SDS011;1855;50.934;6.958;2023-02-28T05:39:30;3.50;;;3.20;;
3677;SDS011;1855;50.934;6.958;2023-02-28T05:41:56;2.70;;;2.50;;
3677;SDS011;1855;50.934;6.958;2023-02-28T05:44:23;3.33;;;2.92;;
3677;SDS011;1855;50.934;6.958;2023-02-28T05:46:50;3.13;;;2.83;;
3677;SDS011;1855;50.934;6.958;2023-02-28T05:49:18;2.75;;;2.55;;
3677;SDS011;1855;50.934;6.958;2023-02-28T05:51:45;4.00;;;2.80;;
3677;SDS011;1855;50.934;6.958;2023-02-28T05:54:12;2.70;;;2.50;;
3677;SDS011;1855;50.934;6.958;2023-02-28T05:56:38;2.60;;;2.40;;
3677;SDS011;1855;50.934;6.958;2023-02-28T05:59:08;3.10;;;2.55;;
3677;SDS011;1855;50.934;6.958;2023-02-28T06:01:36;2.83;;;2.53;;
3677;SDS011;1855;50.934;6.958;2023-02-28T06:04:04;3.23;;;2.70;;
3677;SDS011;1855;50.934;6.958;2023-02-28T06:06:35;3.10;;;2.72;;
3677;SDS011;1855;50.934;6.958;2023-02-28T06:09:02;3.40;;;3.10;;
3677;SDS011;1855;50.934;6.958;2023-02-28T06:11:30;4.10;;;3.70;;
3677;SDS011;1855;50.934;6.958;2023-02-28T06:13:57;3.67;;;3.15;;
3677;SDS011;1855;50.934;6.958;2023-02-28T06:16:25;4.22;;;2.80;;
3677;SDS011;1855;50.934;6.958;2023-02-28T06:18:53;3.05;;;2.75;;
3677;SDS011;1855;50.934;6.958;2023-02-28T06:21:21;3.10;;;2.80;;
3677;SDS011;1855;50.934;6.958;2023-02-28T06:23:49;2.90;;;2.70;;
3677;SDS011;1855;50.934;6.958;2023-02-28T06:26:16;3.63;;;3.00;;
3677;SDS011;1855;50.934;6.958;2023-02-28T06:28:43;4.78;;;2.85;;
3677;SDS011;1855;50.934;6.958;2023-02-28T06:31:10;3.78;;;3.38;;
3677;SDS011;1855;50.934;6.958;2023-02-28T06:33:39;3.40;;;3.10;;
3677;SDS011;1855;50.934;6.958;2023-02-28T06:36:08;3.00;;;2.80;;
3677;SDS011;1855;50.934;6.958;2023-02-28T06:38:36;2.80;;;2.60;;
3677;SDS011;1855;50.934;6.958;2023-02-28T06:41:05;3.60;;;2.72;;
3677;SDS011;1855;50.934;6.958;2023-02-28T06:43:33;3.65;;;2.90;;
3677;SDS011;1855;50.934;6.958;2023-02-28T06:46:02;5.72;;;5.20;;
3677;SDS011;1855;50.934;6.958;2023-02-28T06:48:30;3.85;;;3.50;;
3677;SDS011;1855;50.934;6.958;2023-02-28T06:51:07;4.37;;;3.20;;
3677;SDS011;1855;50.934;6.958;2023-02-28T06:53:35;3.47;;;3.08;;
3677;SDS011;1855;50.934;6.958;2023-02-28T06:56:05;4.63;;;3.70;;
3677;SDS011;1855;50.934;6.958;2023-02-28T06:58:32;8.57;;;3.70;;
3677;SDS011;1855;50.934;6.958;2023-02-28T07:01:00;7.97;;;4.05;;
3677;SDS011;1855;50.934;6.958;2023-02-28T07:03:27;12.30;;;4.38;;
3677;SDS011;1855;50.934;6.958;2023-02-28T07:05:54;7.53;;;4.00;;
3677;SDS011;1855;50.934;6.958;2023-02-28T07:08:21;5.63;;;3.45;;
3677;SDS011;1855;50.934;6.958;2023-02-28T07:10:50;3.80;;;2.70;;
3677;SDS011;1855;50.934;6.958;2023-02-28T07:13:19;5.63;;;3.53;;
3677;SDS011;1855;50.934;6.958;2023-02-28T07:15:52;3.50;;;3.20;;
3677;SDS011;1855;50.934;6.958;2023-02-28T07:18:19;4.70;;;3.67;;
3677;SDS011;1855;50.934;6.958;2023-02-28T07:20:46;4.20;;;3.08;;
3677;SDS011;1855;50.934;6.958;2023-02-28T07:23:13;4.70;;;3.23;;
3677;SDS011;1855;50.934;6.958;2023-02-28T07:25:40;5.00;;;3.30;;
3677;SDS011;1855;50.934;6.958;2023-02-28T07:28:06;4.90;;;3.20;;
3677;SDS011;1855;50.934;6.958;2023-02-28T07:30:34;4.05;;;3.17;;
3677;SDS011;1855;50.934;6.958;2023-02-28T07:33:01;8.10;;;3.30;;
3677;SDS011;1855;50.934;6.958;2023-02-28T07:35:29;3.90;;;3.17;;
3677;SDS011;1855;50.934;6.958;2023-02-28T07:37:56;4.30;;;2.97;;
3677;SDS011;1855;50.934;6.958;2023-02-28T07:40:24;7.78;;;3.50;;
3677;SDS011;1855;50.934;6.958;2023-02-28T07:42:51;3.63;;;3.03;;
3677;SDS011;1855;50.934;6.958;2023-02-28T07:45:18;4.30;;;3.17;;
3677;SDS011;1855;50.934;6.958;2023-02-28T07:47:46;3.17;;;2.88;;
3677;SDS011;1855;50.934;6.958;2023-02-28T07:50:14;7.77;;;3.27;;
3677;SDS011;1855;50.934;6.958;2023-02-28T07:52:42;6.20;;;5.53;;
3677;SDS011;1855;50.934;6.958;2023-02-28T07:55:09;5.75;;;5.13;;
3677;SDS011;1855;50.934;6.958;2023-02-28T07:57:36;3.50;;;3.20;;
3677;SDS011;1855;50.934;6.958;2023-02-28T08:00:03;4.70;;;2.90;;
3677;SDS011;1855;50.934;6.958;2023-02-28T08:02:31;3.45;;;2.80;;
3677;SDS011;1855;50.934;6.958;2023-02-28T08:04:59;3.10;;;2.80;;
3677;SDS011;1855;50.934;6.958;2023-02-28T08:07:27;3.40;;;3.10;;
3677;SDS011;1855;50.934;6.958;2023-02-28T08:09:53;4.07;;;2.73;;
3677;SDS011;1855;50.934;6.958;2023-02-28T08:12:20;4.70;;;2.80;;
3677;SDS011;1855;50.934;6.958;2023-02-28T08:14:47;4.05;;;2.60;;
3677;SDS011;1855;50.934;6.958;2023-02-28T08:17:14;2.70;;;2.50;;
3677;SDS011;1855;50.934;6.958;2023-02-28T08:19:40;2.67;;;2.47;;
3677;SDS011;1855;50.934;6.958;2023-02-28T08:22:08;2.40;;;2.20;;
3677;SDS011;1855;50.934;6.958;2023-02-28T08:24:35;2.55;;;2.28;;
3677;SDS011;1855;50.934;6.958;2023-02-28T08:27:02;2.33;;;2.13;;
3677;SDS011;1855;50.934;6.958;2023-02-28T08:29:29;5.68;;;5.18;;
3677;SDS011;1855;50.934;6.958;2023-02-28T08:31:55;4.70;;;3.10;;
3677;SDS011;1855;50.934;6.958;2023-02-28T08:34:23;2.50;;;2.30;;
3677;SDS011;1855;50.934;6.958;2023-02-28T08:36:50;4.10;;;2.90;;
3677;SDS011;1855;50.934;6.958;2023-02-28T08:39:19;3.33;;;2.22;;
3677;SDS011;1855;50.934;6.958;2023-02-28T08:41:46;2.20;;;2.00;;
3677;SDS011;1855;50.934;6.958;2023-02-28T08:44:12;2.10;;;1.90;;
3677;SDS011;1855;50.934;6.958;2023-02-28T08:46:39;2.00;;;1.80;;
3677;SDS011;1855;50.934;6.958;2023-02-28T08:49:06;2.70;;;1.77;;
3677;SDS011;1855;50.934;6.958;2023-02-28T08:51:34;2.47;;;2.00;;
3677;SDS011;1855;50.934;6.958;2023-02-28T08:54:01;2.00;;;1.80;;
3677;SDS011;1855;50.934;6.958;2023-02-28T08:56:29;2.23;;;1.90;;
3677;SDS011;1855;50.934;6.958;2023-02-28T08:58:56;2.10;;;1.90;;
3677;SDS011;1855;50.934;6.958;2023-02-28T09:01:24;2.60;;;1.98;;
3677;SDS011;1855;50.934;6.958;2023-02-28T09:03:53;2.40;;;1.70;;
3677;SDS011;1855;50.934;6.958;2023-02-28T09:06:21;2.00;;;1.90;;
3677;SDS011;1855;50.934;6.958;2023-02-28T09:08:50;1.80;;;1.60;;
3677;SDS011;1855;50.934;6.958;2023-02-28T09:11:17;2.00;;;1.80;;
3677;SDS011;1855;50.934;6.958;2023-02-28T09:13:45;2.00;;;1.77;;
3677;SDS011;1855;50.934;6.958;2023-02-28T09:16:13;1.65;;;1.50;;
3677;SDS011;1855;50.934;6.958;2023-02-28T09:18:41;2.67;;;1.70;;
3677;SDS011;1855;50.934;6.958;2023-02-28T09:21:09;2.30;;;1.70;;
3677;SDS011;1855;50.934;6.958;2023-02-28T09:23:39;2.80;;;1.70;;
3677;SDS011;1855;50.934;6.958;2023-02-28T09:26:07;3.03;;;1.88;;
3677;SDS011;1855;50.934;6.958;2023-02-28T09:28:33;1.70;;;1.40;;
3677;SDS011;1855;50.934;6.958;2023-02-28T09:31:01;2.10;;;1.40;;
3677;SDS011;1855;50.934;6.958;2023-02-28T09:33:29;1.70;;;1.60;;
3677;SDS011;1855;50.934;6.958;2023-02-28T09:35:57;2.08;;;1.80;;
3677;SDS011;1855;50.934;6.958;2023-02-28T09:38:25;1.70;;;1.50;;
3677;SDS011;1855;50.934;6.958;2023-02-28T09:40:53;1.80;;;1.60;;
3677;SDS011;1855;50.934;6.958;2023-02-28T09:43:23;1.88;;;1.60;;
3677;SDS011;1855;50.934;6.958;2023-02-28T09:45:52;2.33;;;1.80;;
3677;SDS011;1855;50.934;6.958;2023-02-28T09:48:28;3.05;;;1.60;;
3677;SDS011;1855;50.934;6.958;2023-02-28T09:51:00;1.40;;;1.25;;
3677;SDS011;1855;50.934;6.958;2023-02-28T09:53:30;1.80;;;1.60;;
3677;SDS011;1855;50.934;6.958;2023-02-28T09:56:00;1.80;;;1.60;;
3677;SDS011;1855;50.934;6.958;2023-02-28T09:58:31;2.28;;;1.20;;
3677;SDS011;1855;50.934;6.958;2023-02-28T10:01:03;3.50;;;1.70;;
3677;SDS011;1855;50.934;6.958;2023-02-28T10:03:40;2.10;;;1.90;;
3677;SDS011;1855;50.934;6.958;2023-02-28T10:06:13;1.70;;;1.60;;
3677;SDS011;1855;50.934;6.958;2023-02-28T10:08:45;1.60;;;1.50;;
3677;SDS011;1855;50.934;6.958;2023-02-28T10:11:22;5.30;;;1.80;;
3677;SDS011;1855;50.934;6.958;2023-02-28T10:13:52;1.67;;;1.58;;
3677;SDS011;1855;50.934;6.958;2023-02-28T10:16:27;3.40;;;2.67;;
3677;SDS011;1855;50.934;6.958;2023-02-28T10:19:02;2.10;;;1.80;;
3677;SDS011;1855;50.934;6.958;2023-02-28T10:21:31;2.03;;;1.70;;
3677;SDS011;1855;50.934;6.958;2023-02-28T10:24:03;1.60;;;1.50;;
3677;SDS011;1855;50.934;6.958;2023-02-28T10:26:36;1.80;;;1.50;;
3677;SDS011;1855;50.934;6.958;2023-02-28T10:29:03;2.13;;;1.80;;
3677;SDS011;1855;50.934;6.958;2023-02-28T10:31:30;1.80;;;1.50;;
3677;SDS011;1855;50.934;6.958;2023-02-28T10:33:57;2.33;;;2.08;;
3677;SDS011;1855;50.934;6.958;2023-02-28T10:36:25;1.90;;;1.70;;
3677;SDS011;1855;50.934;6.958;2023-02-28T10:38:53;2.85;;;1.90;;
3677;SDS011;1855;50.934;6.958;2023-02-28T10:41:26;1.90;;;1.60;;
3677;SDS011;1855;50.934;6.958;2023-02-28T10:46:41;3.00;;;1.70;;
3677;SDS011;1855;50.934;6.958;2023-02-28T10:49:12;2.53;;;1.80;;
3677;SDS011;1855;50.934;6.958;2023-02-28T10:51:42;2.60;;;1.90;;
3677;SDS011;1855;50.934;6.958;2023-02-28T10:54:15;1.90;;;1.80;;
3677;SDS011;1855;50.934;6.958;2023-02-28T10:56:44;1.98;;;1.80;;
3677;SDS011;1855;50.934;6.958;2023-02-28T10:59:27;2.38;;;1.90;;
3677;SDS011;1855;50.934;6.958;2023-02-28T11:01:55;2.28;;;1.80;;
3677;SDS011;1855;50.934;6.958;2023-02-28T11:04:32;2.00;;;1.90;;
3677;SDS011;1855;50.934;6.958;2023-02-28T11:07:04;2.35;;;2.00;;
3677;SDS011;1855;50.934;6.958;2023-02-28T11:09:44;2.22;;;1.80;;
3677;SDS011;1855;50.934;6.958;2023-02-28T11:12:19;2.03;;;1.80;;
3677;SDS011;1855;50.934;6.958;2023-02-28T11:14:48;2.10;;;1.90;;
3677;SDS011;1855;50.934;6.958;2023-02-28T11:17:19;3.35;;;2.00;;
3677;SDS011;1855;50.934;6.958;2023-02-28T11:19:49;2.38;;;1.60;;
3677;SDS011;1855;50.934;6.958;2023-02-28T11:22:19;4.57;;;2.60;;
3677;SDS011;1855;50.934;6.958;2023-02-28T11:24:50;2.20;;;1.80;;
3677;SDS011;1855;50.934;6.958;2023-02-28T11:27:26;2.10;;;1.90;;
3677;SDS011;1855;50.934;6.958;2023-02-28T11:32:55;1.80;;;1.70;;
3677;SDS011;1855;50.934;6.958;2023-02-28T11:35:23;2.00;;;1.80;;
3677;SDS011;1855;50.934;6.958;2023-02-28T11:37:54;1.90;;;1.80;;
3677;SDS011;1855;50.934;6.958;2023-02-28T11:40:23;2.60;;;2.40;;
3677;SDS011;1855;50.934;6.958;2023-02-28T11:42:57;1.77;;;1.67;;
3677;SDS011;1855;50.934;6.958;2023-02-28T11:45:43;2.95;;;1.98;;
3677;SDS011;1855;50.934;6.958;2023-02-28T11:48:20;2.30;;;2.00;;
3677;SDS011;1855;50.934;6.958;2023-02-28T11:50:54;2.07;;;1.97;;
3677;SDS011;1855;50.934;6.958;2023-02-28T11:53:37;2.42;;;1.90;;
3677;SDS011;1855;50.934;6.958;2023-02-28T11:56:16;3.30;;;2.30;;
3677;SDS011;1855;50.934;6.958;2023-02-28T11:58:52;3.40;;;2.20;;
3677;SDS011;1855;50.934;6.958;2023-02-28T12:01:29;2.55;;;2.35;;
3677;SDS011;1855;50.934;6.958;2023-02-28T12:04:11;2.10;;;1.90;;
3677;SDS011;1855;50.934;6.958;2023-02-28T12:06:52;3.05;;;2.30;;
3677;SDS011;1855;50.934;6.958;2023-02-28T12:09:34;2.30;;;2.10;;
3677;SDS011;1855;50.934;6.958;2023-02-28T12:12:11;2.43;;;1.90;;
3677;SDS011;1855;50.934;6.958;2023-02-28T12:14:50;2.40;;;2.20;;
3677;SDS011;1855;50.934;6.958;2023-02-28T12:17:30;2.03;;;1.80;;
3677;SDS011;1855;50.934;6.958;2023-02-28T12:20:12;1.90;;;1.80;;
3677;SDS011;1855;50.934;6.958;2023-02-28T12:22:49;2.20;;;2.00;;
3677;SDS011;1855;50.934;6.958;2023-02-28T12:25:24;2.35;;;1.80;;
3677;SDS011;1855;50.934;6.958;2023-02-28T12:28:23;2.55;;;1.92;;
3677;SDS011;1855;50.934;6.958;2023-02-28T12:30:54;3.00;;;2.30;;
3677;SDS011;1855;50.934;6.958;2023-02-28T12:33:27;2.20;;;2.00;;
3677;SDS011;1855;50.934;6.958;2023-02-28T12:35:59;2.30;;;2.10;;
3677;SDS011;1855;50.934;6.958;2023-02-28T12:38:34;2.20;;;2.00;;
3677;SDS011;1855;50.934;6.958;2023-02-28T12:41:08;4.00;;;2.20;;
3677;SDS011;1855;50.934;6.958;2023-02-28T12:43:40;3.05;;;1.75;;
3677;SDS011;1855;50.934;6.958;2023-02-28T12:46:11;2.53;;;2.10;;
3677;SDS011;1855;50.934;6.958;2023-02-28T12:48:43;2.90;;;2.60;;
3677;SDS011;1855;50.934;6.958;2023-02-28T12:51:13;2.50;;;2.30;;
3677;SDS011;1855;50.934;6.958;2023-02-28T12:53:45;2.50;;;2.30;;
3677;SDS011;1855;50.934;6.958;2023-02-28T12:56:26;2.60;;;2.20;;
3677;SDS011;1855;50.934;6.958;2023-02-28T12:59:01;3.85;;;2.60;;
3677;SDS011;1855;50.934;6.958;2023-02-28T13:01:42;2.72;;;2.45;;
3677;SDS011;1855;50.934;6.958;2023-02-28T13:04:56;3.20;;;2.45;;
3677;SDS011;1855;50.934;6.958;2023-02-28T13:07:47;2.30;;;2.00;;
3677;SDS011;1855;50.934;6.958;2023-02-28T13:10:52;2.35;;;2.15;;
3677;SDS011;1855;50.934;6.958;2023-02-28T13:13:22;3.83;;;2.67;;
3677;SDS011;1855;50.934;6.958;2023-02-28T13:16:01;2.40;;;2.20;;
3677;SDS011;1855;50.934;6.958;2023-02-28T13:18:31;3.00;;;2.20;;
3677;SDS011;1855;50.934;6.958;2023-02-28T13:21:02;2.60;;;2.40;;
3677;SDS011;1855;50.934;6.958;2023-02-28T13:23:56;2.60;;;2.40;;
3677;SDS011;1855;50.934;6.958;2023-02-28T13:29:29;2.72;;;2.30;;
3677;SDS011;1855;50.934;6.958;2023-02-28T13:38:15;3.13;;;2.75;;
3677;SDS011;1855;50.934;6.958;2023-02-28T13:44:00;2.63;;;2.42;;
3677;SDS011;1855;50.934;6.958;2023-02-28T13:46:30;2.58;;;2.38;;
3677;SDS011;1855;50.934;6.958;2023-02-28T13:51:45;2.88;;;2.67;;
3677;SDS011;1855;50.934;6.958;2023-02-28T13:54:19;2.70;;;2.50;;
3677;SDS011;1855;50.934;6.958;2023-02-28T13:57:01;2.90;;;2.70;;
3677;SDS011;1855;50.934;6.958;2023-02-28T13:59:38;2.60;;;2.30;;
3677;SDS011;1855;50.934;6.958;2023-02-28T14:02:23;2.80;;;2.60;;
3677;SDS011;1855;50.934;6.958;2023-02-28T14:05:06;3.57;;;2.37;;
3677;SDS011;1855;50.934;6.958;2023-02-28T14:07:41;2.50;;;2.30;;
3677;SDS011;1855;50.934;6.958;2023-02-28T14:10:19;2.60;;;2.40;;
3677;SDS011;1855;50.934;6.958;2023-02-28T14:12:52;2.65;;;2.45;;
3677;SDS011;1855;50.934;6.958;2023-02-28T14:15:41;2.50;;;2.30;;
3677;SDS011;1855;50.934;6.958;2023-02-28T14:18:24;2.60;;;2.40;;
3677;SDS011;1855;50.934;6.958;2023-02-28T14:21:08;2.60;;;2.40;;
3677;SDS011;1855;50.934;6.958;2023-02-28T14:23:42;2.80;;;2.60;;
3677;SDS011;1855;50.934;6.958;2023-02-28T14:26:31;2.40;;;2.20;;
3677;SDS011;1855;50.934;6.958;2023-02-28T14:29:27;2.40;;;2.20;;
3677;SDS011;1855;50.934;6.958;2023-02-28T14:32:11;3.17;;;2.88;;
3677;SDS011;1855;50.934;6.958;2023-02-28T14:34:50;2.90;;;2.60;;
3677;SDS011;1855;50.934;6.958;2023-02-28T14:37:23;2.97;;;2.78;;
3677;SDS011;1855;50.934;6.958;2023-02-28T14:39:54;3.03;;;2.60;;
3677;SDS011;1855;50.934;6.958;2023-02-28T14:42:28;2.60;;;2.40;;
3677;SDS011;1855;50.934;6.958;2023-02-28T14:44:57;3.20;;;2.90;;
3677;SDS011;1855;50.934;6.958;2023-02-28T14:47:25;2.90;;;2.70;;
3677;SDS011;1855;50.934;6.958;2023-02-28T14:49:56;2.70;;;2.50;;
3677;SDS011;1855;50.934;6.958;2023-02-28T14:52:24;2.80;;;2.60;;
3677;SDS011;1855;50.934;6.958;2023-02-28T14:54:54;2.70;;;2.50;;
3677;SDS011;1855;50.934;6.958;2023-02-28T14:57:24;2.80;;;2.60;;
3677;SDS011;1855;50.934;6.958;2023-02-28T14:59:59;2.70;;;2.50;;
3677;SDS011;1855;50.934;6.958;2023-02-28T15:02:30;3.10;;;2.80;;
3677;SDS011;1855;50.934;6.958;2023-02-28T15:05:10;2.90;;;2.70;;
3677;SDS011;1855;50.934;6.958;2023-02-28T15:08:05;2.53;;;2.33;;
3677;SDS011;1855;50.934;6.958;2023-02-28T15:10:36;2.70;;;2.20;;
3677;SDS011;1855;50.934;6.958;2023-02-28T15:13:06;3.00;;;2.50;;
3677;SDS011;1855;50.934;6.958;2023-02-28T15:15:40;3.10;;;2.80;;
3677;SDS011;1855;50.934;6.958;2023-02-28T15:18:13;2.90;;;2.60;;
3677;SDS011;1855;50.934;6.958;2023-02-28T15:20:46;2.50;;;2.30;;
3677;SDS011;1855;50.934;6.958;2023-02-28T15:23:13;3.30;;;2.60;;
3677;SDS011;1855;50.934;6.958;2023-02-28T15:25:41;2.80;;;2.60;;
3677;SDS011;1855;50.934;6.958;2023-02-28T15:28:10;3.13;;;2.90;;
3677;SDS011;1855;50.934;6.958;2023-02-28T15:30:50;3.30;;;3.00;;
3677;SDS011;1855;50.934;6.958;2023-02-28T15:33:22;3.50;;;3.20;;
3677;SDS011;1855;50.934;6.958;2023-02-28T15:36:02;3.20;;;3.00;;
3677;SDS011;1855;50.934;6.958;2023-02-28T15:38:33;3.00;;;2.80;;
3677;SDS011;1855;50.934;6.958;2023-02-28T15:41:00;2.80;;;2.60;;
3677;SDS011;1855;50.934;6.958;2023-02-28T15:43:28;3.20;;;2.90;;
3677;SDS011;1855;50.934;6.958;2023-02-28T15:45:57;2.70;;;2.50;;
3677;SDS011;1855;50.934;6.958;2023-02-28T15:48:27;3.00;;;2.70;;
3677;SDS011;1855;50.934;6.958;2023-02-28T15:50:57;3.05;;;2.75;;
3677;SDS011;1855;50.934;6.958;2023-02-28T15:53:29;2.72;;;2.53;;
3677;SDS011;1855;50.934;6.958;2023-02-28T15:55:59;3.20;;;2.90;;
3677;SDS011;1855;50.934;6.958;2023-02-28T15:58:28;3.60;;;2.90;;
3677;SDS011;1855;50.934;6.958;2023-02-28T16:01:15;3.40;;;3.10;;
3677;SDS011;1855;50.934;6.958;2023-02-28T16:03:45;2.80;;;2.50;;